sensor_id;sensor_type;location;lat;lon;timestamp;temperature;humidity
54158;DHT22;40065;49.894;10.358;2023-02-23T00:04:56;9.20;99.90
54158;DHT22;40065;49.894;10.358;2023-02-23T00:09:58;9.10;99.90
54158;DHT22;40065;49.894;10.358;2023-02-23T00:15:02;9.00;99.90
54158;DHT22;40065;49.894;10.358;2023-02-23T00:20:05;8.70;99.90
54158;DHT22;40065;49.894;10.358;2023-02-23T00:25:09;9.00;99.90
54158;DHT22;40065;49.894;10.358;2023-02-23T00:30:13;9.10;99.90
54158;DHT22;40065;49.894;10.358;2023-02-23T00:35:15;9.90;99.90
54158;DHT22;40065;49.894;10.358;2023-02-23T00:40:18;10.00;99.90
54158;DHT22;40065;49.894;10.358;2023-02-23T00:45:24;9.80;99.90
54158;DHT22;40065;49.894;10.358;2023-02-23T00:50:26;10.10;99.90
54158;DHT22;40065;49.894;10.358;2023-02-23T00:55:28;10.10;99.90
54158;DHT22;40065;49.894;10.358;2023-02-23T01:00:30;9.90;99.90
54158;DHT22;40065;49.894;10.358;2023-02-23T01:05:35;9.80;99.90
54158;DHT22;40065;49.894;10.358;2023-02-23T01:10:42;9.60;99.90
54158;DHT22;40065;49.894;10.358;2023-02-23T01:15:46;8.90;99.90
54158;DHT22;40065;49.894;10.358;2023-02-23T01:20:48;8.50;99.90
54158;DHT22;40065;49.894;10.358;2023-02-23T01:25:51;8.30;99.90
54158;DHT22;40065;49.894;10.358;2023-02-23T01:30:53;8.20;99.90
54158;DHT22;40065;49.894;10.358;2023-02-23T01:35:58;8.00;99.90
54158;DHT22;40065;49.894;10.358;2023-02-23T01:41:00;8.00;99.90
54158;DHT22;40065;49.894;10.358;2023-02-23T01:46:03;8.10;99.90
54158;DHT22;40065;49.894;10.358;2023-02-23T01:56:11;7.90;99.90
54158;DHT22;40065;49.894;10.358;2023-02-23T02:01:14;7.90;99.90
54158;DHT22;40065;49.894;10.358;2023-02-23T02:06:18;8.00;99.90
54158;DHT22;40065;49.894;10.358;2023-02-23T02:11:22;8.10;99.90
54158;DHT22;40065;49.894;10.358;2023-02-23T02:44:14;8.30;99.90
54158;DHT22;40065;49.894;10.358;2023-02-23T02:49:30;8.10;99.90
54158;DHT22;40065;49.894;10.358;2023-02-23T02:54:37;8.00;99.90
54158;DHT22;40065;49.894;10.358;2023-02-23T02:59:44;8.00;99.90
54158;DHT22;40065;49.894;10.358;2023-02-23T03:05:16;8.10;99.90
54158;DHT22;40065;49.894;10.358;2023-02-23T03:10:46;8.50;99.90
54158;DHT22;40065;49.894;10.358;2023-02-23T03:22:37;9.20;99.90
54158;DHT22;40065;49.894;10.358;2023-02-23T03:28:13;9.30;99.90
54158;DHT22;40065;49.894;10.358;2023-02-23T03:39:13;9.10;99.90
54158;DHT22;40065;49.894;10.358;2023-02-23T03:44:39;9.00;99.90
54158;DHT22;40065;49.894;10.358;2023-02-23T03:50:04;8.80;99.90
54158;DHT22;40065;49.894;10.358;2023-02-23T03:55:30;8.80;99.90
54158;DHT22;40065;49.894;10.358;2023-02-23T04:00:55;8.90;99.90
54158;DHT22;40065;49.894;10.358;2023-02-23T04:06:22;8.70;99.90
54158;DHT22;40065;49.894;10.358;2023-02-23T04:11:52;8.50;99.90
54158;DHT22;40065;49.894;10.358;2023-02-23T04:17:16;8.70;99.90
54158;DHT22;40065;49.894;10.358;2023-02-23T04:22:19;9.00;99.90
54158;DHT22;40065;49.894;10.358;2023-02-23T04:27:21;9.40;99.90
54158;DHT22;40065;49.894;10.358;2023-02-23T04:32:22;9.50;99.90
54158;DHT22;40065;49.894;10.358;2023-02-23T04:37:24;9.40;99.90
54158;DHT22;40065;49.894;10.358;2023-02-23T04:42:26;9.40;99.90
54158;DHT22;40065;49.894;10.358;2023-02-23T04:47:28;9.40;99.90
54158;DHT22;40065;49.894;10.358;2023-02-23T04:52:30;9.40;99.90
54158;DHT22;40065;49.894;10.358;2023-02-23T04:57:33;9.50;99.90
54158;DHT22;40065;49.894;10.358;2023-02-23T05:02:35;9.40;99.90
54158;DHT22;40065;49.894;10.358;2023-02-23T05:07:37;9.50;99.90
54158;DHT22;40065;49.894;10.358;2023-02-23T05:12:39;9.50;99.90
54158;DHT22;40065;49.894;10.358;2023-02-23T05:17:41;9.60;99.90
54158;DHT22;40065;49.894;10.358;2023-02-23T05:22:42;9.50;99.90
54158;DHT22;40065;49.894;10.358;2023-02-23T05:27:44;9.40;99.90
54158;DHT22;40065;49.894;10.358;2023-02-23T05:32:46;9.50;99.90
54158;DHT22;40065;49.894;10.358;2023-02-23T05:37:48;9.50;99.90
54158;DHT22;40065;49.894;10.358;2023-02-23T05:42:50;9.50;99.90
54158;DHT22;40065;49.894;10.358;2023-02-23T05:47:51;9.50;99.90
54158;DHT22;40065;49.894;10.358;2023-02-23T05:52:53;9.60;99.90
54158;DHT22;40065;49.894;10.358;2023-02-23T05:57:55;9.60;99.90
54158;DHT22;40065;49.894;10.358;2023-02-23T06:02:57;9.60;99.90
54158;DHT22;40065;49.894;10.358;2023-02-23T06:07:58;9.50;99.90
54158;DHT22;40065;49.894;10.358;2023-02-23T06:13:00;9.30;99.90
54158;DHT22;40065;49.894;10.358;2023-02-23T06:18:03;9.20;99.90
54158;DHT22;40065;49.894;10.358;2023-02-23T06:23:05;9.10;99.90
54158;DHT22;40065;49.894;10.358;2023-02-23T06:28:08;9.30;99.90
54158;DHT22;40065;49.894;10.358;2023-02-23T06:33:11;9.30;99.90
54158;DHT22;40065;49.894;10.358;2023-02-23T06:38:13;9.30;99.90
54158;DHT22;40065;49.894;10.358;2023-02-23T06:43:15;9.20;99.90
54158;DHT22;40065;49.894;10.358;2023-02-23T06:48:17;9.40;99.90
54158;DHT22;40065;49.894;10.358;2023-02-23T06:53:19;9.30;99.90
54158;DHT22;40065;49.894;10.358;2023-02-23T06:58:20;9.30;99.90
54158;DHT22;40065;49.894;10.358;2023-02-23T07:03:23;9.30;99.90
54158;DHT22;40065;49.894;10.358;2023-02-23T07:08:26;9.20;99.90
54158;DHT22;40065;49.894;10.358;2023-02-23T07:13:27;9.40;99.90
54158;DHT22;40065;49.894;10.358;2023-02-23T07:18:29;9.40;99.90
54158;DHT22;40065;49.894;10.358;2023-02-23T07:23:31;9.50;99.90
54158;DHT22;40065;49.894;10.358;2023-02-23T07:28:33;9.60;99.90
54158;DHT22;40065;49.894;10.358;2023-02-23T07:33:35;9.60;99.90
54158;DHT22;40065;49.894;10.358;2023-02-23T07:38:36;9.50;99.90
54158;DHT22;40065;49.894;10.358;2023-02-23T07:43:38;9.70;99.90
54158;DHT22;40065;49.894;10.358;2023-02-23T07:48:41;9.80;99.90
54158;DHT22;40065;49.894;10.358;2023-02-23T07:53:45;9.80;99.90
54158;DHT22;40065;49.894;10.358;2023-02-23T07:58:47;9.90;99.90
54158;DHT22;40065;49.894;10.358;2023-02-23T08:03:48;9.90;99.90
54158;DHT22;40065;49.894;10.358;2023-02-23T08:08:50;9.90;99.90
54158;DHT22;40065;49.894;10.358;2023-02-23T08:13:52;9.90;99.90
54158;DHT22;40065;49.894;10.358;2023-02-23T08:18:58;9.90;99.90
54158;DHT22;40065;49.894;10.358;2023-02-23T08:24:00;9.90;99.90
54158;DHT22;40065;49.894;10.358;2023-02-23T08:29:03;9.90;99.90
54158;DHT22;40065;49.894;10.358;2023-02-23T08:34:05;9.90;99.90
54158;DHT22;40065;49.894;10.358;2023-02-23T08:39:07;9.90;99.90
54158;DHT22;40065;49.894;10.358;2023-02-23T08:44:10;10.20;99.90
54158;DHT22;40065;49.894;10.358;2023-02-23T08:49:12;10.30;99.90
54158;DHT22;40065;49.894;10.358;2023-02-23T08:54:15;10.30;99.90
54158;DHT22;40065;49.894;10.358;2023-02-23T08:59:18;10.30;99.90
54158;DHT22;40065;49.894;10.358;2023-02-23T09:04:20;10.50;99.90
54158;DHT22;40065;49.894;10.358;2023-02-23T09:09:21;10.60;99.90
54158;DHT22;40065;49.894;10.358;2023-02-23T09:14:23;10.60;99.90
54158;DHT22;40065;49.894;10.358;2023-02-23T09:19:25;10.80;99.90
54158;DHT22;40065;49.894;10.358;2023-02-23T09:24:28;10.80;99.90
54158;DHT22;40065;49.894;10.358;2023-02-23T09:29:29;10.90;99.90
54158;DHT22;40065;49.894;10.358;2023-02-23T09:34:32;11.10;99.90
54158;DHT22;40065;49.894;10.358;2023-02-23T09:39:36;11.20;99.90
54158;DHT22;40065;49.894;10.358;2023-02-23T09:44:48;11.20;99.90
54158;DHT22;40065;49.894;10.358;2023-02-23T09:49:58;11.40;99.90
54158;DHT22;40065;49.894;10.358;2023-02-23T09:55:00;11.40;99.90
54158;DHT22;40065;49.894;10.358;2023-02-23T10:00:10;11.60;99.90
54158;DHT22;40065;49.894;10.358;2023-02-23T10:05:14;11.50;99.90
54158;DHT22;40065;49.894;10.358;2023-02-23T10:10:48;11.60;99.90
54158;DHT22;40065;49.894;10.358;2023-02-23T10:15:52;11.50;99.90
54158;DHT22;40065;49.894;10.358;2023-02-23T10:26:30;11.70;99.90
54158;DHT22;40065;49.894;10.358;2023-02-23T10:31:45;11.70;99.90
54158;DHT22;40065;49.894;10.358;2023-02-23T10:36:50;11.50;99.90
54158;DHT22;40065;49.894;10.358;2023-02-23T10:41:53;11.30;99.90
54158;DHT22;40065;49.894;10.358;2023-02-23T10:47:02;11.40;99.90
54158;DHT22;40065;49.894;10.358;2023-02-23T10:52:11;11.50;99.90
54158;DHT22;40065;49.894;10.358;2023-02-23T10:57:26;11.50;99.90
54158;DHT22;40065;49.894;10.358;2023-02-23T11:02:31;11.40;99.90
54158;DHT22;40065;49.894;10.358;2023-02-23T11:07:33;11.30;99.90
54158;DHT22;40065;49.894;10.358;2023-02-23T11:12:39;11.60;99.90
54158;DHT22;40065;49.894;10.358;2023-02-23T11:17:44;11.90;99.90
54158;DHT22;40065;49.894;10.358;2023-02-23T11:22:46;11.90;99.90
54158;DHT22;40065;49.894;10.358;2023-02-23T11:27:49;12.00;99.90
54158;DHT22;40065;49.894;10.358;2023-02-23T11:32:56;12.00;99.90
54158;DHT22;40065;49.894;10.358;2023-02-23T11:37:58;12.20;99.90
54158;DHT22;40065;49.894;10.358;2023-02-23T11:43:13;12.30;99.90
54158;DHT22;40065;49.894;10.358;2023-02-23T11:53:30;12.10;99.90
54158;DHT22;40065;49.894;10.358;2023-02-23T11:58:43;11.90;99.90
54158;DHT22;40065;49.894;10.358;2023-02-23T12:03:53;11.90;99.90
54158;DHT22;40065;49.894;10.358;2023-02-23T12:09:09;11.90;99.90
54158;DHT22;40065;49.894;10.358;2023-02-23T12:14:28;12.20;99.90
54158;DHT22;40065;49.894;10.358;2023-02-23T12:19:41;12.60;99.90
54158;DHT22;40065;49.894;10.358;2023-02-23T12:30:15;13.50;99.90
54158;DHT22;40065;49.894;10.358;2023-02-23T12:35:32;13.40;99.90
54158;DHT22;40065;49.894;10.358;2023-02-23T12:40:38;13.30;99.90
54158;DHT22;40065;49.894;10.358;2023-02-23T12:45:55;13.10;99.90
54158;DHT22;40065;49.894;10.358;2023-02-23T12:51:00;13.00;99.90
54158;DHT22;40065;49.894;10.358;2023-02-23T12:56:10;13.50;99.90
54158;DHT22;40065;49.894;10.358;2023-02-23T13:01:28;13.40;99.90
54158;DHT22;40065;49.894;10.358;2023-02-23T13:07:19;13.70;99.90
54158;DHT22;40065;49.894;10.358;2023-02-23T13:17:42;13.10;99.90
54158;DHT22;40065;49.894;10.358;2023-02-23T13:22:53;13.20;99.90
54158;DHT22;40065;49.894;10.358;2023-02-23T13:27:59;13.30;99.90
54158;DHT22;40065;49.894;10.358;2023-02-23T13:33:10;13.10;99.90
54158;DHT22;40065;49.894;10.358;2023-02-23T13:38:30;13.00;99.90
54158;DHT22;40065;49.894;10.358;2023-02-23T13:44:06;13.30;99.90
54158;DHT22;40065;49.894;10.358;2023-02-23T13:49:34;13.40;99.90
54158;DHT22;40065;49.894;10.358;2023-02-23T13:54:36;13.50;99.90
54158;DHT22;40065;49.894;10.358;2023-02-23T13:59:41;13.00;99.90
54158;DHT22;40065;49.894;10.358;2023-02-23T14:04:44;12.60;99.90
54158;DHT22;40065;49.894;10.358;2023-02-23T14:10:08;12.30;99.90
54158;DHT22;40065;49.894;10.358;2023-02-23T14:31:21;12.30;99.90
54158;DHT22;40065;49.894;10.358;2023-02-23T14:46:59;12.90;99.90
54158;DHT22;40065;49.894;10.358;2023-02-23T14:52:07;12.90;99.90
54158;DHT22;40065;49.894;10.358;2023-02-23T14:57:21;12.80;99.90
54158;DHT22;40065;49.894;10.358;2023-02-23T15:02:25;12.60;99.90
54158;DHT22;40065;49.894;10.358;2023-02-23T15:07:32;12.60;99.90
54158;DHT22;40065;49.894;10.358;2023-02-23T15:12:36;12.90;99.90
54158;DHT22;40065;49.894;10.358;2023-02-23T15:17:42;12.80;99.90
54158;DHT22;40065;49.894;10.358;2023-02-23T15:22:47;12.60;99.90
54158;DHT22;40065;49.894;10.358;2023-02-23T15:27:52;12.50;99.90
54158;DHT22;40065;49.894;10.358;2023-02-23T15:33:10;12.40;99.90
54158;DHT22;40065;49.894;10.358;2023-02-23T15:38:21;12.50;99.90
54158;DHT22;40065;49.894;10.358;2023-02-23T15:43:44;12.60;99.90
54158;DHT22;40065;49.894;10.358;2023-02-23T15:48:47;12.50;99.90
54158;DHT22;40065;49.894;10.358;2023-02-23T15:53:51;12.20;99.90
54158;DHT22;40065;49.894;10.358;2023-02-23T15:59:01;12.10;99.90
54158;DHT22;40065;49.894;10.358;2023-02-23T16:04:11;11.90;99.90
54158;DHT22;40065;49.894;10.358;2023-02-23T16:14:23;12.00;99.90
54158;DHT22;40065;49.894;10.358;2023-02-23T16:19:27;12.10;99.90
54158;DHT22;40065;49.894;10.358;2023-02-23T16:24:30;12.30;99.90
54158;DHT22;40065;49.894;10.358;2023-02-23T16:29:36;12.10;99.90
54158;DHT22;40065;49.894;10.358;2023-02-23T16:34:49;11.80;99.90
54158;DHT22;40065;49.894;10.358;2023-02-23T16:39:52;11.80;99.90
54158;DHT22;40065;49.894;10.358;2023-02-23T16:44:54;11.70;99.90
54158;DHT22;40065;49.894;10.358;2023-02-23T16:49:56;11.60;99.90
54158;DHT22;40065;49.894;10.358;2023-02-23T16:55:01;11.50;99.90
54158;DHT22;40065;49.894;10.358;2023-02-23T17:00:07;11.70;99.90
54158;DHT22;40065;49.894;10.358;2023-02-23T17:05:18;11.60;99.90
54158;DHT22;40065;49.894;10.358;2023-02-23T17:10:23;11.50;99.90
54158;DHT22;40065;49.894;10.358;2023-02-23T17:15:27;11.60;99.90
54158;DHT22;40065;49.894;10.358;2023-02-23T17:20:30;11.40;99.90
54158;DHT22;40065;49.894;10.358;2023-02-23T17:25:33;11.40;99.90
54158;DHT22;40065;49.894;10.358;2023-02-23T17:30:35;11.20;99.90
54158;DHT22;40065;49.894;10.358;2023-02-23T17:35:37;11.00;99.90
54158;DHT22;40065;49.894;10.358;2023-02-23T17:40:39;11.10;99.90
54158;DHT22;40065;49.894;10.358;2023-02-23T17:45:41;10.90;99.90
54158;DHT22;40065;49.894;10.358;2023-02-23T17:50:43;11.00;99.90
54158;DHT22;40065;49.894;10.358;2023-02-23T17:55:45;11.00;99.90
54158;DHT22;40065;49.894;10.358;2023-02-23T18:00:47;10.90;99.90
54158;DHT22;40065;49.894;10.358;2023-02-23T18:05:49;10.90;99.90
54158;DHT22;40065;49.894;10.358;2023-02-23T18:10:52;10.90;99.90
54158;DHT22;40065;49.894;10.358;2023-02-23T18:15:58;10.80;99.90
54158;DHT22;40065;49.894;10.358;2023-02-23T18:21:01;10.70;99.90
54158;DHT22;40065;49.894;10.358;2023-02-23T18:26:13;10.70;99.90
54158;DHT22;40065;49.894;10.358;2023-02-23T18:31:21;10.70;99.90
54158;DHT22;40065;49.894;10.358;2023-02-23T18:36:33;10.70;99.90
54158;DHT22;40065;49.894;10.358;2023-02-23T18:41:40;10.80;99.90
54158;DHT22;40065;49.894;10.358;2023-02-23T18:46:43;10.70;99.90
54158;DHT22;40065;49.894;10.358;2023-02-23T18:51:46;10.70;99.90
54158;DHT22;40065;49.894;10.358;2023-02-23T18:56:48;10.60;99.90
54158;DHT22;40065;49.894;10.358;2023-02-23T19:02:00;10.70;99.90
54158;DHT22;40065;49.894;10.358;2023-02-23T19:07:01;10.60;99.90
54158;DHT22;40065;49.894;10.358;2023-02-23T19:12:03;10.40;99.90
54158;DHT22;40065;49.894;10.358;2023-02-23T19:17:06;10.30;99.90
54158;DHT22;40065;49.894;10.358;2023-02-23T19:22:08;10.30;99.90
54158;DHT22;40065;49.894;10.358;2023-02-23T19:27:10;10.20;99.90
54158;DHT22;40065;49.894;10.358;2023-02-23T19:32:16;10.30;99.90
54158;DHT22;40065;49.894;10.358;2023-02-23T19:37:18;10.20;99.90
54158;DHT22;40065;49.894;10.358;2023-02-23T19:42:20;10.20;99.90
54158;DHT22;40065;49.894;10.358;2023-02-23T19:47:22;10.10;99.90
54158;DHT22;40065;49.894;10.358;2023-02-23T19:52:24;10.00;99.90
54158;DHT22;40065;49.894;10.358;2023-02-23T19:57:29;10.00;99.90
54158;DHT22;40065;49.894;10.358;2023-02-23T20:02:31;9.90;99.90
54158;DHT22;40065;49.894;10.358;2023-02-23T20:07:32;9.90;99.90
54158;DHT22;40065;49.894;10.358;2023-02-23T20:12:35;9.90;99.90
54158;DHT22;40065;49.894;10.358;2023-02-23T20:17:36;9.80;99.90
54158;DHT22;40065;49.894;10.358;2023-02-23T20:22:40;9.80;99.90
54158;DHT22;40065;49.894;10.358;2023-02-23T20:27:43;9.90;99.90
54158;DHT22;40065;49.894;10.358;2023-02-23T20:32:45;10.00;99.90
54158;DHT22;40065;49.894;10.358;2023-02-23T20:37:48;10.10;99.90
54158;DHT22;40065;49.894;10.358;2023-02-23T20:42:50;10.20;99.90
54158;DHT22;40065;49.894;10.358;2023-02-23T20:47:52;10.30;99.90
54158;DHT22;40065;49.894;10.358;2023-02-23T20:52:54;10.20;99.90
54158;DHT22;40065;49.894;10.358;2023-02-23T20:57:56;10.20;99.90
54158;DHT22;40065;49.894;10.358;2023-02-23T21:03:00;10.20;99.90
54158;DHT22;40065;49.894;10.358;2023-02-23T21:08:05;10.30;99.90
54158;DHT22;40065;49.894;10.358;2023-02-23T21:13:08;10.00;99.90
54158;DHT22;40065;49.894;10.358;2023-02-23T21:18:12;9.90;99.90
54158;DHT22;40065;49.894;10.358;2023-02-23T21:23:14;10.00;99.90
54158;DHT22;40065;49.894;10.358;2023-02-23T21:28:19;10.00;99.90
54158;DHT22;40065;49.894;10.358;2023-02-23T21:33:21;9.80;99.90
54158;DHT22;40065;49.894;10.358;2023-02-23T21:38:24;9.80;99.90
54158;DHT22;40065;49.894;10.358;2023-02-23T21:43:26;9.80;99.90
54158;DHT22;40065;49.894;10.358;2023-02-23T21:48:28;9.80;99.90
54158;DHT22;40065;49.894;10.358;2023-02-23T21:53:30;10.00;99.90
54158;DHT22;40065;49.894;10.358;2023-02-23T21:58:33;10.00;99.90
54158;DHT22;40065;49.894;10.358;2023-02-23T22:03:34;10.00;99.90
54158;DHT22;40065;49.894;10.358;2023-02-23T22:08:36;10.10;99.90
54158;DHT22;40065;49.894;10.358;2023-02-23T22:13:39;10.00;99.90
54158;DHT22;40065;49.894;10.358;2023-02-23T22:18:41;9.70;99.90
54158;DHT22;40065;49.894;10.358;2023-02-23T22:23:43;9.70;99.90
54158;DHT22;40065;49.894;10.358;2023-02-23T22:28:48;9.80;99.90
54158;DHT22;40065;49.894;10.358;2023-02-23T22:33:50;9.70;99.90
54158;DHT22;40065;49.894;10.358;2023-02-23T22:38:56;9.60;99.90
54158;DHT22;40065;49.894;10.358;2023-02-23T22:43:58;10.00;99.90
54158;DHT22;40065;49.894;10.358;2023-02-23T22:49:00;9.90;99.90
54158;DHT22;40065;49.894;10.358;2023-02-23T22:54:04;9.80;99.90
54158;DHT22;40065;49.894;10.358;2023-02-23T22:59:06;9.90;99.90
54158;DHT22;40065;49.894;10.358;2023-02-23T23:04:11;9.80;99.90
54158;DHT22;40065;49.894;10.358;2023-02-23T23:09:15;9.70;99.90
54158;DHT22;40065;49.894;10.358;2023-02-23T23:14:19;9.70;99.90
54158;DHT22;40065;49.894;10.358;2023-02-23T23:19:21;9.60;99.90
54158;DHT22;40065;49.894;10.358;2023-02-23T23:24:26;9.60;99.90
54158;DHT22;40065;49.894;10.358;2023-02-23T23:29:28;9.40;99.90
54158;DHT22;40065;49.894;10.358;2023-02-23T23:34:33;9.40;99.90
54158;DHT22;40065;49.894;10.358;2023-02-23T23:39:35;9.60;99.90
54158;DHT22;40065;49.894;10.358;2023-02-23T23:44:36;9.50;99.90
54158;DHT22;40065;49.894;10.358;2023-02-23T23:49:39;9.60;99.90
54158;DHT22;40065;49.894;10.358;2023-02-23T23:54:41;9.50;99.90
54158;DHT22;40065;49.894;10.358;2023-02-23T23:59:43;9.40;99.90
